Time;durP1;ratioP1;P1;durP2;ratioP2;P2;SDS_P1;SDS_P2;PMS_P1;PMS_P2;Temp;Humidity;BMP_temperature;BMP_pressure;BME280_temperature;BME280_humidity;BME280_pressure;Samples;Min_cycle;Max_cycle;Signal;HPM_P1;HPM_P2
2022/08/18 00:01:49;;;;;;;37.73;36.03;;;21.70;79.20;;;;;;5033947;28;20571;-66
2022/08/18 00:04:16;;;;;;;35.30;33.40;;;21.60;79.30;;;;;;5043393;28;20456;-67
2022/08/18 00:06:43;;;;;;;33.70;32.00;;;21.50;79.10;;;;;;5037756;28;20560;-67
2022/08/18 00:09:11;;;;;;;34.40;32.70;;;21.40;79.40;;;;;;5034730;28;20886;-66
2022/08/18 00:11:42;;;;;;;35.93;33.83;;;21.50;79.20;;;;;;5041880;28;20570;-67
2022/08/18 00:14:12;;;;;;;34.37;32.67;;;21.40;79.20;;;;;;5044544;28;20498;-66
2022/08/18 00:16:39;;;;;;;37.10;35.30;;;21.40;79.20;;;;;;5041131;28;20762;-66
2022/08/18 00:19:07;;;;;;;37.00;35.13;;;21.40;79.40;;;;;;5035802;28;20464;-67
2022/08/18 00:21:34;;;;;;;36.10;34.30;;;21.30;79.90;;;;;;5038219;28;21662;-67
2022/08/18 00:24:01;;;;;;;34.20;32.30;;;21.20;80.50;;;;;;5032295;28;21027;-66
2022/08/18 00:26:28;;;;;;;36.80;34.93;;;21.20;80.30;;;;;;5036675;28;20861;-67
2022/08/18 00:28:55;;;;;;;35.53;33.93;;;21.20;80.00;;;;;;5035921;28;20566;-67
2022/08/18 00:31:24;;;;;;;35.40;33.70;;;21.10;80.40;;;;;;5036434;28;20475;-66
2022/08/18 00:33:51;;;;;;;34.00;32.40;;;21.10;80.80;;;;;;5036292;28;20877;-67
2022/08/18 00:36:20;;;;;;;34.17;32.57;;;21.00;81.10;;;;;;5031298;28;20456;-67
2022/08/18 00:38:47;;;;;;;32.43;30.83;;;21.00;80.90;;;;;;5035294;28;20463;-67
2022/08/18 00:41:14;;;;;;;33.57;31.97;;;21.00;80.70;;;;;;5038045;28;20487;-67
2022/08/18 00:43:43;;;;;;;35.30;33.70;;;21.00;80.70;;;;;;5044611;28;21031;-67
2022/08/18 00:46:15;;;;;;;35.10;33.40;;;21.00;80.70;;;;;;5040113;28;20514;-67
2022/08/18 00:48:42;;;;;;;34.53;32.77;;;21.00;80.90;;;;;;5033923;28;20538;-67
2022/08/18 00:51:12;;;;;;;36.53;34.73;;;21.00;80.80;;;;;;5035120;28;20480;-66
2022/08/18 00:53:48;;;;;;;34.70;33.00;;;21.00;80.90;;;;;;5043964;28;20857;-67
2022/08/18 00:56:21;;;;;;;35.00;33.40;;;21.00;81.00;;;;;;5035538;28;20468;-67
2022/08/18 00:58:52;;;;;;;34.60;33.00;;;21.00;80.80;;;;;;5039955;28;20479;-66
2022/08/18 01:01:23;;;;;;;34.80;33.00;;;21.10;80.60;;;;;;5035223;28;20475;-66
2022/08/18 01:03:54;;;;;;;37.53;35.63;;;21.00;80.30;;;;;;5040949;28;20551;-66
2022/08/18 01:06:28;;;;;;;38.47;36.67;;;21.00;80.50;;;;;;5036360;28;20563;-67
2022/08/18 01:08:56;;;;;;;37.70;35.90;;;20.90;80.60;;;;;;5042086;28;20745;-67
2022/08/18 01:11:24;;;;;;;36.50;34.80;;;20.90;81.10;;;;;;5036697;28;20899;-66
2022/08/18 01:13:52;;;;;;;34.93;33.03;;;20.90;81.30;;;;;;5038323;28;20574;-67
2022/08/18 01:21:57;;;;;;;34.27;32.60;;;20.90;81.00;;;;;;5040887;28;20573;-67
2022/08/18 01:27:13;;;;;;;36.40;34.70;;;20.90;81.00;;;;;;5040320;28;20452;-67
2022/08/18 01:29:40;;;;;;;34.43;32.73;;;20.90;81.10;;;;;;5031153;28;20496;-67
2022/08/18 01:32:07;;;;;;;34.33;32.70;;;20.90;81.10;;;;;;5036401;28;20563;-67
2022/08/18 01:34:34;;;;;;;37.27;35.57;;;20.90;81.00;;;;;;5033324;28;20455;-67
2022/08/18 01:37:03;;;;;;;36.10;34.40;;;20.90;80.90;;;;;;5037186;28;20467;-66
2022/08/18 01:39:32;;;;;;;36.17;34.30;;;20.90;81.00;;;;;;5035532;28;20512;-67
2022/08/18 01:42:00;;;;;;;36.43;34.67;;;20.90;81.10;;;;;;5037002;28;20479;-67
2022/08/18 01:44:27;;;;;;;36.90;35.10;;;20.90;81.20;;;;;;5045069;28;20815;-67
2022/08/18 01:46:55;;;;;;;35.00;33.40;;;20.90;81.50;;;;;;5042377;28;20462;-67
2022/08/18 01:49:22;;;;;;;35.33;33.70;;;20.90;81.70;;;;;;5034945;28;20488;-67
2022/08/18 01:51:49;;;;;;;37.30;35.30;;;20.90;81.70;;;;;;5031669;28;20478;-67
2022/08/18 01:54:16;;;;;;;35.63;33.93;;;20.90;81.70;;;;;;5041830;28;20475;-67
2022/08/18 01:56:44;;;;;;;34.37;32.80;;;20.90;81.90;;;;;;5040647;28;20472;-70
2022/08/18 01:59:13;;;;;;;36.20;34.30;;;20.90;82.00;;;;;;5035739;28;21018;-69
2022/08/18 02:01:41;;;;;;;35.33;33.63;;;20.80;82.10;;;;;;5033353;28;20868;-71
2022/08/18 02:04:11;;;;;;;36.03;34.13;;;20.80;82.30;;;;;;5042287;28;20531;-71
2022/08/18 02:06:39;;;;;;;38.50;36.70;;;20.80;81.80;;;;;;5042607;28;20490;-72
2022/08/18 02:09:06;;;;;;;44.60;42.57;;;20.80;82.00;;;;;;5040933;28;20827;-72
2022/08/18 02:11:33;;;;;;;37.17;35.43;;;20.70;82.10;;;;;;5036432;28;20534;-69
2022/08/18 02:14:01;;;;;;;43.47;41.37;;;20.70;82.50;;;;;;5042426;28;21104;-69
2022/08/18 02:16:28;;;;;;;37.97;36.07;;;20.70;82.70;;;;;;5032062;28;20543;-69
2022/08/18 02:18:55;;;;;;;36.07;34.30;;;20.60;83.10;;;;;;5035786;28;20837;-69
2022/08/18 02:21:22;;;;;;;36.67;34.87;;;20.60;83.00;;;;;;5038131;28;20994;-69
2022/08/18 02:23:50;;;;;;;50.70;48.43;;;20.60;82.90;;;;;;5035786;28;20968;-69
2022/08/18 02:26:18;;;;;;;39.40;37.60;;;20.60;82.80;;;;;;5038528;28;20582;-68
2022/08/18 02:28:45;;;;;;;35.80;34.00;;;20.60;82.80;;;;;;5038504;28;20471;-70
2022/08/18 02:31:16;;;;;;;36.23;34.53;;;20.60;82.90;;;;;;5035972;28;20569;-69
2022/08/18 02:33:44;;;;;;;36.20;34.50;;;20.60;82.80;;;;;;5044126;28;20483;-69
2022/08/18 02:36:11;;;;;;;37.57;35.77;;;20.70;82.50;;;;;;5038334;28;20461;-72
2022/08/18 02:38:39;;;;;;;47.30;45.10;;;20.70;82.40;;;;;;5045051;28;20459;-69
2022/08/18 02:41:09;;;;;;;55.03;52.33;;;20.60;82.60;;;;;;5038852;28;20483;-68
2022/08/18 02:43:37;;;;;;;43.20;41.10;;;20.60;83.00;;;;;;5042828;28;20455;-69
2022/08/18 02:46:06;;;;;;;42.33;40.43;;;20.50;83.10;;;;;;5044450;28;20535;-70
2022/08/18 02:48:34;;;;;;;38.53;36.47;;;20.40;83.40;;;;;;5041656;28;20540;-70
2022/08/18 02:51:03;;;;;;;42.43;40.43;;;20.40;83.50;;;;;;5039312;28;20481;-66
2022/08/18 02:53:30;;;;;;;41.47;39.27;;;20.40;83.60;;;;;;5049175;28;20483;-66
2022/08/18 02:56:21;;;;;;;38.50;36.70;;;20.50;83.50;;;;;;5038195;28;20463;-66
2022/08/18 02:58:49;;;;;;;38.40;36.47;;;20.50;83.10;;;;;;5043962;28;20813;-66
2022/08/18 03:01:16;;;;;;;40.73;38.73;;;20.50;82.80;;;;;;5039919;28;20482;-66
2022/08/18 03:03:44;;;;;;;38.60;36.50;;;20.60;82.80;;;;;;5042533;28;20577;-66
2022/08/18 03:06:11;;;;;;;37.40;35.70;;;20.50;82.90;;;;;;5046869;28;20555;-66
2022/08/18 03:08:38;;;;;;;45.73;43.57;;;20.50;82.80;;;;;;5043614;28;20457;-66
2022/08/18 03:11:05;;;;;;;43.67;41.77;;;20.40;83.30;;;;;;5036850;28;20558;-66
2022/08/18 03:13:32;;;;;;;39.57;37.67;;;20.30;83.50;;;;;;5040538;28;20487;-66
2022/08/18 03:15:59;;;;;;;42.87;40.87;;;20.30;83.50;;;;;;5049429;28;20554;-66
2022/08/18 03:18:26;;;;;;;40.50;38.60;;;20.20;84.10;;;;;;5039828;28;20494;-66
2022/08/18 03:20:54;;;;;;;35.67;33.97;;;20.10;84.20;;;;;;5042777;28;20590;-67
2022/08/18 03:23:21;;;;;;;38.67;36.77;;;20.10;84.40;;;;;;5046524;28;20888;-66
2022/08/18 03:25:50;;;;;;;41.83;39.90;;;20.20;84.20;;;;;;5041033;28;20493;-66
2022/08/18 03:28:17;;;;;;;55.33;52.77;;;20.20;84.10;;;;;;5032618;28;20470;-66
2022/08/18 03:30:44;;;;;;;40.17;38.13;;;20.20;84.00;;;;;;5038228;28;21022;-66
2022/08/18 03:33:11;;;;;;;43.40;41.40;;;20.30;83.90;;;;;;5038760;28;20566;-66
2022/08/18 03:35:39;;;;;;;42.10;40.20;;;20.30;83.90;;;;;;5041533;28;20467;-66
2022/08/18 03:38:08;;;;;;;38.90;37.03;;;20.30;83.80;;;;;;5043814;28;20529;-66
2022/08/18 03:40:36;;;;;;;54.97;52.33;;;20.30;83.80;;;;;;5047134;28;20849;-66
2022/08/18 03:43:05;;;;;;;55.20;52.63;;;20.30;83.70;;;;;;5043768;28;20483;-66
2022/08/18 03:45:33;;;;;;;49.77;47.40;;;20.40;83.40;;;;;;5046639;28;20825;-66
2022/08/18 03:48:01;;;;;;;42.40;40.40;;;20.30;83.70;;;;;;5042096;28;20467;-66
2022/08/18 03:50:28;;;;;;;39.87;38.07;;;20.30;83.60;;;;;;5044268;28;20479;-66
2022/08/18 03:52:58;;;;;;;36.10;34.30;;;20.30;83.70;;;;;;5046219;28;20545;-66
2022/08/18 03:55:28;;;;;;;41.53;39.53;;;20.30;83.60;;;;;;5042245;28;20458;-66
2022/08/18 03:58:00;;;;;;;50.93;48.43;;;20.30;83.40;;;;;;5043050;28;20470;-66
2022/08/18 04:00:28;;;;;;;37.07;35.33;;;20.40;83.30;;;;;;5037399;28;20472;-66
2022/08/18 04:02:56;;;;;;;49.30;46.80;;;20.40;83.20;;;;;;5039256;28;20459;-66
2022/08/18 04:05:23;;;;;;;37.30;35.70;;;20.40;83.30;;;;;;5042056;28;20463;-66
2022/08/18 04:07:49;;;;;;;36.50;34.90;;;20.40;83.20;;;;;;5037461;28;20474;-66
2022/08/18 04:10:17;;;;;;;47.10;44.87;;;20.40;83.30;;;;;;5037463;28;20502;-66
2022/08/18 04:12:45;;;;;;;35.80;34.17;;;20.40;83.20;;;;;;5037541;28;20471;-66
2022/08/18 04:15:12;;;;;;;37.90;36.00;;;20.40;83.10;;;;;;5042597;28;20562;-66
2022/08/18 04:17:39;;;;;;;59.60;56.77;;;20.40;83.10;;;;;;5043578;28;20509;-66
2022/08/18 04:20:06;;;;;;;39.20;37.37;;;20.40;83.10;;;;;;5046455;28;20463;-66
2022/08/18 04:22:33;;;;;;;51.27;48.90;;;20.30;83.30;;;;;;5040973;28;20502;-66
2022/08/18 04:25:00;;;;;;;36.80;35.00;;;20.40;83.50;;;;;;5044814;28;20455;-66
2022/08/18 04:27:28;;;;;;;42.20;39.93;;;20.50;83.40;;;;;;5037782;28;20463;-66
2022/08/18 04:29:57;;;;;;;39.40;37.17;;;20.40;83.60;;;;;;5040832;28;20474;-66
2022/08/18 04:32:24;;;;;;;46.87;44.37;;;20.40;83.80;;;;;;5036484;28;20996;-66
2022/08/18 04:34:52;;;;;;;56.50;53.50;;;20.40;83.70;;;;;;5035527;28;20487;-66
2022/08/18 04:37:19;;;;;;;55.55;52.65;;;20.40;83.60;;;;;;5039481;28;20747;-66
2022/08/18 04:39:46;;;;;;;39.17;37.07;;;20.40;83.80;;;;;;5030673;28;20248;-66
2022/08/18 04:42:13;;;;;;;43.83;41.43;;;20.50;83.50;;;;;;5040094;28;20486;-66
2022/08/18 04:44:40;;;;;;;38.10;36.07;;;20.50;83.30;;;;;;5035617;28;20531;-66
2022/08/18 04:47:09;;;;;;;47.33;44.93;;;20.50;83.20;;;;;;5043493;28;20921;-67
2022/08/18 04:49:37;;;;;;;44.47;42.20;;;20.50;83.30;;;;;;5035426;28;20448;-70
2022/08/18 04:54:51;;;;;;;39.97;37.93;;;20.50;83.40;;;;;;5036896;28;20465;-69
2022/08/18 04:57:21;;;;;;;37.03;35.23;;;20.50;83.40;;;;;;5039402;28;20470;-70
2022/08/18 04:59:51;;;;;;;35.80;33.83;;;20.50;83.40;;;;;;5042942;28;20514;-72
2022/08/18 05:02:21;;;;;;;41.67;39.57;;;20.50;83.70;;;;;;5038047;28;20506;-72
2022/08/18 05:04:48;;;;;;;42.27;40.23;;;20.60;83.70;;;;;;5033639;28;20495;-70
2022/08/18 05:07:18;;;;;;;37.77;35.90;;;20.70;83.40;;;;;;5045125;28;20451;-71
2022/08/18 05:09:45;;;;;;;37.33;35.43;;;20.60;83.70;;;;;;5041712;28;20455;-68
2022/08/18 05:12:14;;;;;;;35.10;33.30;;;20.60;83.60;;;;;;5041789;28;20598;-67
2022/08/18 05:14:43;;;;;;;49.20;46.60;;;20.70;83.40;;;;;;5036747;28;20874;-70
2022/08/18 05:17:11;;;;;;;38.03;36.03;;;20.80;83.20;;;;;;5040570;28;20463;-73
2022/08/18 05:19:39;;;;;;;39.77;37.67;;;20.90;82.90;;;;;;5037877;28;20461;-68
2022/08/18 05:22:07;;;;;;;37.23;35.30;;;21.00;82.60;;;;;;5039743;28;20479;-67
2022/08/18 05:24:35;;;;;;;37.15;35.15;;;21.10;81.90;;;;;;5040212;28;20946;-67
2022/08/18 05:27:02;;;;;;;42.03;39.83;;;21.30;81.40;;;;;;5038827;28;20463;-70
2022/08/18 05:29:35;;;;;;;44.73;42.30;;;21.50;80.80;;;;;;5037605;28;20476;-71
2022/08/18 05:32:05;;;;;;;35.17;33.37;;;21.60;80.30;;;;;;5037238;28;20483;-73
2022/08/18 05:34:33;;;;;;;35.50;33.53;;;21.70;80.20;;;;;;5037458;28;20497;-70
2022/08/18 05:37:20;;;;;;;41.97;39.73;;;21.80;79.50;;;;;;5039116;28;20960;-71
2022/08/18 05:39:57;;;;;;;38.50;36.40;;;22.00;79.20;;;;;;5039029;28;20538;-71
2022/08/18 05:42:35;;;;;;;38.03;36.10;;;22.00;78.20;;;;;;5037684;28;20463;-70
2022/08/18 05:45:07;;;;;;;36.80;34.90;;;22.10;77.90;;;;;;5035296;28;20972;-73
2022/08/18 05:47:33;;;;;;;49.60;47.10;;;22.20;77.60;;;;;;5038574;28;20550;-71
2022/08/18 05:50:07;;;;;;;47.17;44.73;;;22.30;76.40;;;;;;5037890;28;20490;-70
2022/08/18 05:52:39;;;;;;;46.50;44.00;;;22.20;77.00;;;;;;5044444;28;20546;-69
2022/08/18 05:57:58;;;;;;;41.90;39.53;;;22.10;77.00;;;;;;5037692;28;20443;-69
2022/08/18 06:00:27;;;;;;;41.13;39.17;;;22.10;76.90;;;;;;5046151;28;20483;-68
2022/08/18 06:03:00;;;;;;;47.60;45.30;;;22.10;77.10;;;;;;5046634;28;20835;-70
2022/08/18 06:05:31;;;;;;;50.67;48.10;;;22.20;77.20;;;;;;5036320;28;21009;-70
2022/08/18 06:08:03;;;;;;;41.50;39.40;;;22.30;76.80;;;;;;5046857;28;21049;-68
2022/08/18 06:10:32;;;;;;;37.43;35.50;;;22.40;76.80;;;;;;5045853;28;20536;-70
2022/08/18 06:13:01;;;;;;;41.50;39.40;;;22.60;76.00;;;;;;5043022;28;20534;-68
2022/08/18 06:15:38;;;;;;;49.77;47.33;;;22.80;75.50;;;;;;5041374;28;20614;-67
2022/08/18 06:18:31;;;;;;;46.03;43.83;;;22.80;75.10;;;;;;5038654;28;20460;-66
2022/08/18 06:21:27;;;;;;;57.97;55.03;;;22.80;75.20;;;;;;5044557;28;20539;-67
2022/08/18 06:24:06;;;;;;;42.37;40.30;;;23.00;74.20;;;;;;5042098;28;20506;-70
2022/08/18 06:26:44;;;;;;;42.17;39.87;;;23.10;73.70;;;;;;5046027;28;20470;-69
2022/08/18 06:29:26;;;;;;;49.27;46.80;;;23.40;73.20;;;;;;5048539;28;20464;-69
2022/08/18 06:32:02;;;;;;;39.37;37.37;;;23.70;72.40;;;;;;5043840;28;20832;-70
2022/08/18 06:34:41;;;;;;;38.13;36.17;;;23.80;71.90;;;;;;5041700;28;20995;-70
2022/08/18 06:37:16;;;;;;;41.17;39.17;;;23.80;72.90;;;;;;5046029;28;20478;-66
2022/08/18 06:39:47;;;;;;;40.63;38.53;;;23.90;71.00;;;;;;5044129;28;20923;-67
2022/08/18 06:42:17;;;;;;;43.60;41.03;;;23.80;71.10;;;;;;5050873;28;20881;-67
2022/08/18 06:44:49;;;;;;;44.93;42.73;;;23.80;71.40;;;;;;5046929;28;20451;-67
2022/08/18 06:47:27;;;;;;;43.97;41.87;;;23.80;70.40;;;;;;5046401;28;20459;-70
2022/08/18 06:50:03;;;;;;;41.17;38.90;;;23.60;70.80;;;;;;5043206;28;20458;-66
2022/08/18 06:52:33;;;;;;;43.00;40.83;;;23.60;70.80;;;;;;5047593;28;20465;-68
2022/08/18 06:55:05;;;;;;;47.53;45.13;;;23.60;70.80;;;;;;5041508;28;20953;-68
2022/08/18 06:57:36;;;;;;;48.10;45.50;;;23.50;71.10;;;;;;5049477;28;20535;-69
2022/08/18 07:00:19;;;;;;;47.17;44.83;;;23.60;70.70;;;;;;5041366;28;21094;-69
2022/08/18 07:02:51;;;;;;;47.67;45.20;;;23.70;70.40;;;;;;5032963;28;20463;-69
2022/08/18 07:05:26;;;;;;;55.93;53.03;;;23.90;70.20;;;;;;5041092;28;20458;-69
2022/08/18 07:08:14;;;;;;;40.53;38.53;;;24.20;68.80;;;;;;5043702;28;20458;-69
2022/08/18 07:10:45;;;;;;;43.47;41.13;;;24.20;68.50;;;;;;5043090;28;20481;-73
2022/08/18 07:13:18;;;;;;;41.83;39.43;;;24.20;68.40;;;;;;5047217;28;20831;-68
2022/08/18 07:15:47;;;;;;;50.27;47.57;;;24.30;68.40;;;;;;5050101;28;20480;-69
2022/08/18 07:18:21;;;;;;;39.60;37.50;;;24.40;68.10;;;;;;5049454;28;20456;-69
2022/08/18 07:20:52;;;;;;;58.17;55.27;;;24.60;67.60;;;;;;5037230;28;20562;-66
2022/08/18 07:23:25;;;;;;;59.87;56.97;;;24.70;67.40;;;;;;5043631;28;20465;-68
2022/08/18 07:26:04;;;;;;;49.33;46.73;;;24.80;67.60;;;;;;5048968;28;21031;-67
2022/08/18 07:28:33;;;;;;;54.97;52.10;;;24.80;67.20;;;;;;5038766;28;20560;-69
2022/08/18 07:31:36;;;;;;;43.90;41.70;;;24.70;67.00;;;;;;5049066;28;21056;-70
2022/08/18 07:34:08;;;;;;;48.57;46.17;;;24.50;67.20;;;;;;5032315;28;20455;-66
2022/08/18 07:36:40;;;;;;;43.97;41.70;;;24.20;68.00;;;;;;5049453;28;20466;-67
2022/08/18 07:39:14;;;;;;;49.57;47.10;;;24.00;68.60;;;;;;5042404;28;20988;-68
2022/08/18 07:41:47;;;;;;;52.23;49.60;;;23.70;69.60;;;;;;5039770;28;20482;-66
2022/08/18 07:44:21;;;;;;;37.97;36.17;;;23.60;69.80;;;;;;5048881;28;21014;-67
2022/08/18 07:46:57;;;;;;;39.40;37.50;;;23.40;70.70;;;;;;5037959;28;20472;-67
2022/08/18 07:49:29;;;;;;;50.70;48.20;;;23.20;71.30;;;;;;5041505;28;20523;-65
2022/08/18 07:52:02;;;;;;;41.33;39.27;;;23.00;72.10;;;;;;5041741;28;20518;-65
2022/08/18 07:54:45;;;;;;;45.97;43.77;;;22.90;72.30;;;;;;5043799;28;21191;-65
2022/08/18 07:57:22;;;;;;;39.17;37.17;;;22.70;72.80;;;;;;5044746;28;20533;-64
2022/08/18 08:00:12;;;;;;;53.73;50.87;;;22.70;73.30;;;;;;5039431;28;20558;-65
2022/08/18 08:02:52;;;;;;;42.47;40.47;;;22.60;73.70;;;;;;5041073;28;20456;-65
2022/08/18 08:05:36;;;;;;;56.30;53.27;;;22.60;73.70;;;;;;5046558;28;20461;-65
2022/08/18 08:08:19;;;;;;;46.93;44.53;;;22.70;73.70;;;;;;5035141;28;20462;-65
2022/08/18 08:10:58;;;;;;;41.17;39.00;;;22.60;73.80;;;;;;5050391;28;20488;-65
2022/08/18 08:13:41;;;;;;;46.90;44.50;;;22.60;74.10;;;;;;5045632;28;20455;-65
2022/08/18 08:16:30;;;;;;;41.83;39.67;;;22.40;74.60;;;;;;5044040;28;20479;-65
2022/08/18 08:19:03;;;;;;;42.80;40.40;;;22.30;75.20;;;;;;5039531;28;20495;-64
2022/08/18 08:21:39;;;;;;;43.40;41.30;;;22.40;75.00;;;;;;5031352;28;20555;-65
2022/08/18 08:24:13;;;;;;;43.27;41.10;;;22.40;75.00;;;;;;5033844;28;20960;-64
2022/08/18 08:26:53;;;;;;;40.33;38.43;;;22.50;74.70;;;;;;5041615;28;20531;-64
2022/08/18 08:29:34;;;;;;;42.20;40.00;;;22.60;74.30;;;;;;5036106;28;21232;-64
2022/08/18 08:32:04;;;;;;;43.13;40.93;;;22.70;74.10;;;;;;5040631;28;20516;-64
2022/08/18 08:34:40;;;;;;;48.67;46.07;;;22.60;74.60;;;;;;5034883;28;20468;-64
2022/08/18 08:37:16;;;;;;;42.93;40.50;;;22.80;74.00;;;;;;5049957;28;20455;-64
2022/08/18 08:39:49;;;;;;;42.93;40.77;;;23.00;73.60;;;;;;5045303;28;20551;-65
2022/08/18 08:42:23;;;;;;;46.10;43.77;;;23.10;73.20;;;;;;5038303;28;20846;-65
2022/08/18 08:44:58;;;;;;;50.70;48.00;;;23.30;72.70;;;;;;5046425;28;21110;-64
2022/08/18 08:47:31;;;;;;;42.77;40.67;;;23.50;72.20;;;;;;5033101;28;20467;-64
2022/08/18 08:50:03;;;;;;;53.57;50.87;;;23.80;71.10;;;;;;5046256;28;20467;-65
2022/08/18 08:52:35;;;;;;;41.10;38.93;;;23.90;70.70;;;;;;5045487;28;20483;-64
2022/08/18 08:55:07;;;;;;;47.33;44.97;;;24.10;70.60;;;;;;5034469;28;20492;-65
2022/08/18 08:57:39;;;;;;;48.67;46.27;;;24.10;70.50;;;;;;5042864;28;20471;-65
2022/08/18 09:00:10;;;;;;;54.47;51.47;;;24.50;69.30;;;;;;5034359;28;20539;-65
2022/08/18 09:02:59;;;;;;;52.80;50.13;;;24.50;69.30;;;;;;5044222;28;20464;-65
2022/08/18 09:05:29;;;;;;;42.30;40.20;;;24.50;69.60;;;;;;5044368;28;20476;-65
2022/08/18 09:08:15;;;;;;;45.77;43.40;;;24.80;68.80;;;;;;5040971;28;20543;-65
2022/08/18 09:11:01;;;;;;;41.60;39.60;;;24.80;68.60;;;;;;5044191;28;20606;-65
2022/08/18 09:13:54;;;;;;;49.93;47.33;;;24.90;68.40;;;;;;5034651;28;20547;-66
2022/08/18 09:16:39;;;;;;;48.20;45.70;;;25.10;68.10;;;;;;5048005;28;20475;-66
2022/08/18 09:19:30;;;;;;;44.17;41.80;;;25.40;67.10;;;;;;5044524;28;20554;-69
2022/08/18 09:22:03;;;;;;;40.40;38.30;;;25.50;66.90;;;;;;5032819;28;20592;-69
2022/08/18 09:24:38;;;;;;;43.07;40.87;;;25.70;66.60;;;;;;5042234;28;20461;-67
2022/08/18 09:27:17;;;;;;;45.83;43.40;;;26.00;65.60;;;;;;5047170;28;20529;-68
2022/08/18 09:29:51;;;;;;;43.93;41.50;;;26.00;65.80;;;;;;5039856;28;20482;-67
2022/08/18 09:32:44;;;;;;;47.70;45.20;;;25.60;66.90;;;;;;5048820;28;21049;-68
2022/08/18 09:35:24;;;;;;;53.73;50.70;;;25.50;67.60;;;;;;5042701;28;20467;-69
2022/08/18 09:43:36;;;;;;;50.17;47.50;;;25.60;67.60;;;;;;5040273;28;20924;-67
2022/08/18 09:46:04;;;;;;;57.53;54.43;;;25.40;68.10;;;;;;5041243;28;20458;-68
2022/08/18 09:48:35;;;;;;;41.00;38.67;;;25.40;68.40;;;;;;5048422;28;20451;-67
2022/08/18 09:51:34;;;;;;;49.60;47.00;;;25.50;68.30;;;;;;5045411;28;20560;-68
2022/08/18 09:54:16;;;;;;;46.63;44.10;;;25.60;68.00;;;;;;5045129;28;20463;-67
2022/08/18 09:57:06;;;;;;;49.97;47.30;;;25.60;68.20;;;;;;5040703;28;20480;-68
2022/08/18 10:00:19;;;;;;;50.53;47.77;;;25.50;68.50;;;;;;5046118;28;20459;-68
2022/08/18 10:03:24;;;;;;;48.80;46.30;;;25.50;68.70;;;;;;5045426;28;20471;-68
2022/08/18 10:06:14;;;;;;;54.67;51.30;;;25.80;68.30;;;;;;5025441;28;20534;-69
2022/08/18 10:09:21;;;;;;;49.40;47.00;;;26.30;67.10;;;;;;5043079;28;20467;-69
2022/08/18 10:12:14;;;;;;;44.47;42.23;;;26.70;65.50;;;;;;5029778;28;20562;-69
2022/08/18 10:15:18;;;;;;;44.93;42.53;;;26.70;65.20;;;;;;5045545;28;21054;-66
2022/08/18 10:17:59;;;;;;;58.97;55.87;;;26.80;65.00;;;;;;5041763;28;20462;-67
2022/08/18 10:20:39;;;;;;;45.33;42.73;;;26.50;65.60;;;;;;5037326;28;20777;-66
2022/08/18 10:23:08;;;;;;;56.10;53.13;;;26.60;65.70;;;;;;5048551;28;20550;-67
2022/08/18 10:25:39;;;;;;;44.37;41.97;;;26.60;65.70;;;;;;5037861;28;20520;-69
2022/08/18 10:28:09;;;;;;;50.47;47.67;;;26.60;65.60;;;;;;5028967;28;20464;-69
2022/08/18 10:31:01;;;;;;;51.90;49.20;;;26.40;66.10;;;;;;5037769;28;20557;-69
2022/08/18 10:33:58;;;;;;;50.53;47.93;;;26.60;65.60;;;;;;5036399;28;20458;-69
2022/08/18 10:36:48;;;;;;;56.67;53.47;;;26.70;65.60;;;;;;5029272;28;20621;-70
2022/08/18 10:39:20;;;;;;;55.87;52.77;;;26.50;65.80;;;;;;5044506;28;20546;-71
2022/08/18 10:42:04;;;;;;;55.00;52.20;;;26.30;66.20;;;;;;5043010;28;20945;-70
2022/08/18 10:44:34;;;;;;;57.57;54.50;;;26.10;67.10;;;;;;5039989;28;20534;-71
2022/08/18 10:47:02;;;;;;;47.50;44.90;;;26.00;67.20;;;;;;5038042;28;20472;-70
2022/08/18 10:49:32;;;;;;;63.60;59.90;;;25.70;68.00;;;;;;5044347;28;21041;-70
2022/08/18 10:52:29;;;;;;;46.53;44.17;;;25.60;68.20;;;;;;5043852;28;20572;-69
2022/08/18 10:55:47;;;;;;;58.33;54.93;;;25.50;68.30;;;;;;5028985;28;20563;-69
2022/08/18 10:58:44;;;;;;;51.77;49.07;;;25.40;68.20;;;;;;5038378;28;20470;-70
2022/08/18 11:01:25;;;;;;;54.17;51.23;;;25.60;68.00;;;;;;5037952;28;20483;-70
2022/08/18 11:04:02;;;;;;;65.13;61.57;;;25.80;67.40;;;;;;5040428;28;20482;-71
2022/08/18 11:06:36;;;;;;;49.27;46.60;;;25.90;66.80;;;;;;5033941;28;20463;-70
2022/08/18 11:09:03;;;;;;;50.50;47.60;;;26.20;66.20;;;;;;5043095;28;20554;-70
2022/08/18 11:11:35;;;;;;;61.93;58.47;;;26.20;65.70;;;;;;5044244;28;20563;-70
2022/08/18 11:14:15;;;;;;;46.30;44.00;;;26.20;65.60;;;;;;5032482;28;20554;-70
2022/08/18 11:16:50;;;;;;;63.73;60.33;;;26.40;64.50;;;;;;5048674;28;20481;-67
2022/08/18 11:19:21;;;;;;;48.03;45.53;;;26.60;64.10;;;;;;5033878;28;20558;-68
2022/08/18 11:21:49;;;;;;;53.20;50.37;;;26.70;64.20;;;;;;5049618;28;20848;-68
2022/08/18 11:24:20;;;;;;;49.63;47.00;;;26.80;63.00;;;;;;5043369;28;20881;-67
2022/08/18 11:26:51;;;;;;;53.97;50.93;;;26.70;63.50;;;;;;5049856;28;20451;-68
2022/08/18 11:29:25;;;;;;;56.10;53.00;;;26.50;64.10;;;;;;5041071;28;20451;-68
2022/08/18 11:31:57;;;;;;;47.43;45.03;;;26.30;64.80;;;;;;5048293;28;20486;-68
2022/08/18 11:34:30;;;;;;;53.17;50.30;;;26.50;64.50;;;;;;5050157;28;20563;-67
2022/08/18 11:37:01;;;;;;;51.77;49.07;;;26.80;63.50;;;;;;5043556;28;20491;-71
2022/08/18 11:39:29;;;;;;;61.33;57.80;;;26.90;62.70;;;;;;5039813;28;20542;-70
2022/08/18 11:41:58;;;;;;;49.33;46.63;;;27.00;62.60;;;;;;5051830;28;20479;-71
2022/08/18 11:44:31;;;;;;;50.93;48.13;;;27.10;62.30;;;;;;5046167;28;20456;-70
2022/08/18 11:47:10;;;;;;;58.60;55.57;;;27.30;61.80;;;;;;5042350;28;20986;-70
2022/08/18 11:49:44;;;;;;;50.03;47.33;;;27.30;61.30;;;;;;5045204;28;20474;-70
2022/08/18 11:52:18;;;;;;;48.13;45.53;;;27.30;61.60;;;;;;5043223;28;20468;-70
2022/08/18 11:54:49;;;;;;;55.30;51.70;;;27.50;61.30;;;;;;5043385;28;20462;-70
2022/08/18 11:57:52;;;;;;;55.97;52.80;;;27.50;61.10;;;;;;5045112;28;20476;-70
2022/08/18 12:00:53;;;;;;;57.10;54.03;;;27.00;62.40;;;;;;5044800;28;20471;-70
2022/08/18 12:03:26;;;;;;;52.90;50.07;;;26.90;62.80;;;;;;5048586;28;20460;-69
2022/08/18 12:05:56;;;;;;;63.17;59.87;;;26.80;63.20;;;;;;5049135;28;20954;-69
2022/08/18 12:08:34;;;;;;;47.73;45.17;;;26.50;63.70;;;;;;5040220;28;20455;-69
2022/08/18 12:11:07;;;;;;;50.27;47.50;;;26.50;63.10;;;;;;5043645;28;20545;-70
2022/08/18 12:13:35;;;;;;;46.53;43.90;;;26.30;63.70;;;;;;5048154;28;20543;-69
2022/08/18 12:16:11;;;;;;;64.97;61.70;;;26.60;63.30;;;;;;5042498;28;20488;-71
2022/08/18 12:18:38;;;;;;;47.43;45.03;;;26.90;62.30;;;;;;5042125;28;20512;-70
2022/08/18 12:21:06;;;;;;;47.47;44.97;;;27.00;61.60;;;;;;5043742;28;20506;-69
2022/08/18 12:23:35;;;;;;;60.87;57.60;;;27.00;61.80;;;;;;5047283;28;20892;-68
2022/08/18 12:26:02;;;;;;;58.23;55.23;;;27.20;60.80;;;;;;5046632;28;20463;-67
2022/08/18 12:28:29;;;;;;;45.60;42.73;;;27.20;61.00;;;;;;5040108;28;20583;-67
2022/08/18 12:30:57;;;;;;;58.90;55.60;;;27.50;60.10;;;;;;5048433;28;20654;-67
2022/08/18 12:33:25;;;;;;;58.37;55.30;;;27.50;59.40;;;;;;5031655;28;20543;-68
2022/08/18 12:35:52;;;;;;;50.03;47.40;;;27.50;59.40;;;;;;5042034;28;20479;-67
2022/08/18 12:38:18;;;;;;;46.40;43.50;;;27.50;59.80;;;;;;5038042;28;20455;-67
2022/08/18 12:40:45;;;;;;;47.10;44.43;;;27.60;59.70;;;;;;5048290;28;20563;-67
2022/08/18 12:43:12;;;;;;;65.90;62.40;;;27.60;59.80;;;;;;5043566;28;20457;-67
2022/08/18 12:45:40;;;;;;;62.53;59.33;;;27.60;60.20;;;;;;5041672;28;20460;-67
2022/08/18 12:48:09;;;;;;;65.83;62.33;;;27.70;59.00;;;;;;5049548;28;20460;-67
2022/08/18 12:50:37;;;;;;;60.10;56.90;;;27.50;58.60;;;;;;5038778;28;21020;-67
2022/08/18 12:53:03;;;;;;;48.10;45.50;;;27.50;57.80;;;;;;5030370;28;20921;-67
2022/08/18 12:55:35;;;;;;;43.60;41.30;;;27.60;58.00;;;;;;5037949;28;20566;-67
2022/08/18 12:58:02;;;;;;;44.37;41.93;;;27.60;58.10;;;;;;5039874;28;20542;-67
2022/08/18 13:00:29;;;;;;;50.63;47.73;;;27.80;57.20;;;;;;5044280;28;20479;-67
2022/08/18 13:02:58;;;;;;;56.70;53.80;;;27.60;57.90;;;;;;5045179;28;20993;-67
2022/08/18 13:05:27;;;;;;;44.47;42.10;;;27.60;58.20;;;;;;5042744;28;20460;-67
2022/08/18 13:07:54;;;;;;;57.27;54.33;;;27.80;58.50;;;;;;5040302;28;20451;-67
2022/08/18 13:10:21;;;;;;;58.63;55.23;;;28.20;57.40;;;;;;5036184;28;20571;-67
2022/08/18 13:12:48;;;;;;;61.33;57.90;;;28.00;57.80;;;;;;5046034;28;20842;-67
2022/08/18 13:15:15;;;;;;;42.83;40.23;;;27.90;57.50;;;;;;5047491;28;20494;-67
2022/08/18 13:17:42;;;;;;;56.77;53.80;;;27.70;57.40;;;;;;5048013;28;20482;-67